sensor_id;sensor_type;location;lat;lon;timestamp;pressure;altitude;pressure_sealevel;temperature;humidity
8366;BME280;4220;42.502;24.188;2022-08-14T00:02:15;94684.09;;;19.52;100.00
8366;BME280;4220;42.502;24.188;2022-08-14T00:04:42;94654.09;;;19.16;100.00
8366;BME280;4220;42.502;24.188;2022-08-14T00:07:10;94681.84;;;19.07;100.00
8366;BME280;4220;42.502;24.188;2022-08-14T00:09:38;94685.19;;;18.99;100.00
8366;BME280;4220;42.502;24.188;2022-08-14T00:12:05;94667.91;;;19.05;100.00
8366;BME280;4220;42.502;24.188;2022-08-14T00:14:32;94683.38;;;19.18;100.00
8366;BME280;4220;42.502;24.188;2022-08-14T00:16:59;94684.41;;;19.22;100.00
8366;BME280;4220;42.502;24.188;2022-08-14T00:19:26;94679.25;;;19.02;100.00
8366;BME280;4220;42.502;24.188;2022-08-14T00:21:53;94675.28;;;18.94;100.00
8366;BME280;4220;42.502;24.188;2022-08-14T00:24:21;94670.44;;;18.96;100.00
8366;BME280;4220;42.502;24.188;2022-08-14T00:26:49;94667.69;;;19.01;100.00
8366;BME280;4220;42.502;24.188;2022-08-14T00:29:16;94666.22;;;19.14;100.00
8366;BME280;4220;42.502;24.188;2022-08-14T00:31:43;94660.84;;;19.14;100.00
8366;BME280;4220;42.502;24.188;2022-08-14T00:34:10;94666.34;;;19.27;100.00
8366;BME280;4220;42.502;24.188;2022-08-14T00:36:37;94668.66;;;19.39;100.00
8366;BME280;4220;42.502;24.188;2022-08-14T00:39:04;94656.06;;;19.58;100.00
8366;BME280;4220;42.502;24.188;2022-08-14T00:41:31;94668.06;;;19.66;100.00
8366;BME280;4220;42.502;24.188;2022-08-14T00:43:59;94666.56;;;19.78;100.00
8366;BME280;4220;42.502;24.188;2022-08-14T00:46:26;94667.09;;;19.80;100.00
8366;BME280;4220;42.502;24.188;2022-08-14T00:48:53;94660.75;;;19.71;100.00
8366;BME280;4220;42.502;24.188;2022-08-14T00:51:20;94659.66;;;19.25;100.00
8366;BME280;4220;42.502;24.188;2022-08-14T00:53:47;94653.63;;;19.09;100.00
8366;BME280;4220;42.502;24.188;2022-08-14T00:56:16;94645.91;;;19.03;100.00
8366;BME280;4220;42.502;24.188;2022-08-14T00:58:43;94644.22;;;19.07;100.00
8366;BME280;4220;42.502;24.188;2022-08-14T01:01:12;94645.03;;;19.07;100.00
8366;BME280;4220;42.502;24.188;2022-08-14T01:03:45;94644.19;;;19.12;100.00
8366;BME280;4220;42.502;24.188;2022-08-14T01:06:13;94644.47;;;19.10;100.00
8366;BME280;4220;42.502;24.188;2022-08-14T01:08:41;94635.00;;;19.18;100.00
8366;BME280;4220;42.502;24.188;2022-08-14T01:11:09;94638.88;;;19.30;100.00
8366;BME280;4220;42.502;24.188;2022-08-14T01:13:41;94604.91;;;19.16;100.00
8366;BME280;4220;42.502;24.188;2022-08-14T01:16:12;94631.94;;;19.53;100.00
8366;BME280;4220;42.502;24.188;2022-08-14T01:18:41;94586.44;;;19.33;100.00
8366;BME280;4220;42.502;24.188;2022-08-14T01:21:32;94626.81;;;19.75;100.00
8366;BME280;4220;42.502;24.188;2022-08-14T01:23:59;94636.13;;;19.83;100.00
8366;BME280;4220;42.502;24.188;2022-08-14T01:26:27;94601.53;;;19.71;100.00
8366;BME280;4220;42.502;24.188;2022-08-14T01:28:57;94599.91;;;19.75;100.00
8366;BME280;4220;42.502;24.188;2022-08-14T01:31:25;94604.81;;;19.68;100.00
8366;BME280;4220;42.502;24.188;2022-08-14T01:33:55;94610.59;;;19.80;100.00
8366;BME280;4220;42.502;24.188;2022-08-14T01:36:23;94599.47;;;19.87;100.00
8366;BME280;4220;42.502;24.188;2022-08-14T01:38:54;94609.94;;;20.07;100.00
8366;BME280;4220;42.502;24.188;2022-08-14T01:41:23;94597.94;;;19.99;100.00
8366;BME280;4220;42.502;24.188;2022-08-14T01:43:52;94603.25;;;20.04;100.00
8366;BME280;4220;42.502;24.188;2022-08-14T01:46:21;94602.50;;;19.99;100.00
8366;BME280;4220;42.502;24.188;2022-08-14T01:48:49;94603.38;;;19.94;100.00
8366;BME280;4220;42.502;24.188;2022-08-14T01:51:18;94604.91;;;20.00;100.00
8366;BME280;4220;42.502;24.188;2022-08-14T01:53:49;94595.25;;;19.99;100.00
8366;BME280;4220;42.502;24.188;2022-08-14T01:56:17;94606.13;;;20.08;100.00
8366;BME280;4220;42.502;24.188;2022-08-14T01:58:44;94600.69;;;19.94;100.00
8366;BME280;4220;42.502;24.188;2022-08-14T02:01:14;94594.13;;;20.00;100.00
8366;BME280;4220;42.502;24.188;2022-08-14T02:03:41;94572.53;;;19.87;100.00
8366;BME280;4220;42.502;24.188;2022-08-14T02:06:09;94599.50;;;20.00;100.00
8366;BME280;4220;42.502;24.188;2022-08-14T02:08:37;94555.31;;;19.69;100.00
8366;BME280;4220;42.502;24.188;2022-08-14T02:11:08;94594.44;;;19.99;100.00
8366;BME280;4220;42.502;24.188;2022-08-14T02:13:50;94593.63;;;19.80;100.00
8366;BME280;4220;42.502;24.188;2022-08-14T02:16:19;94576.31;;;19.67;100.00
8366;BME280;4220;42.502;24.188;2022-08-14T02:18:50;94597.72;;;19.77;100.00
8366;BME280;4220;42.502;24.188;2022-08-14T02:21:17;94593.22;;;19.73;100.00
8366;BME280;4220;42.502;24.188;2022-08-14T02:23:45;94592.28;;;19.58;100.00
8366;BME280;4220;42.502;24.188;2022-08-14T02:26:16;94591.81;;;19.33;100.00
8366;BME280;4220;42.502;24.188;2022-08-14T02:28:44;94585.47;;;19.24;100.00
8366;BME280;4220;42.502;24.188;2022-08-14T02:31:13;94580.81;;;19.29;100.00
8366;BME280;4220;42.502;24.188;2022-08-14T02:33:44;94549.25;;;19.16;100.00
8366;BME280;4220;42.502;24.188;2022-08-14T02:36:13;94587.84;;;19.49;100.00
8366;BME280;4220;42.502;24.188;2022-08-14T02:38:41;94589.41;;;19.55;100.00
8366;BME280;4220;42.502;24.188;2022-08-14T02:41:10;94584.97;;;19.64;100.00
8366;BME280;4220;42.502;24.188;2022-08-14T02:43:38;94588.03;;;19.76;100.00
8366;BME280;4220;42.502;24.188;2022-08-14T02:46:06;94586.94;;;19.77;100.00
8366;BME280;4220;42.502;24.188;2022-08-14T02:48:38;94586.88;;;19.82;100.00
8366;BME280;4220;42.502;24.188;2022-08-14T02:51:07;94581.00;;;19.80;100.00
8366;BME280;4220;42.502;24.188;2022-08-14T02:53:35;94580.13;;;19.85;100.00
8366;BME280;4220;42.502;24.188;2022-08-14T02:56:05;94577.44;;;19.85;100.00
8366;BME280;4220;42.502;24.188;2022-08-14T02:58:33;94590.56;;;19.86;100.00
8366;BME280;4220;42.502;24.188;2022-08-14T03:01:03;94584.31;;;19.91;100.00
8366;BME280;4220;42.502;24.188;2022-08-14T03:03:30;94594.94;;;20.01;100.00
8366;BME280;4220;42.502;24.188;2022-08-14T03:05:58;94597.25;;;20.07;100.00
8366;BME280;4220;42.502;24.188;2022-08-14T03:08:25;94599.88;;;20.12;100.00
8366;BME280;4220;42.502;24.188;2022-08-14T03:10:57;94591.59;;;20.09;100.00
8366;BME280;4220;42.502;24.188;2022-08-14T03:13:27;94595.09;;;20.09;100.00
8366;BME280;4220;42.502;24.188;2022-08-14T03:15:57;94614.44;;;20.11;100.00
8366;BME280;4220;42.502;24.188;2022-08-14T03:18:25;94613.72;;;20.06;100.00
8366;BME280;4220;42.502;24.188;2022-08-14T03:20:52;94601.13;;;20.01;100.00
8366;BME280;4220;42.502;24.188;2022-08-14T03:23:21;94610.63;;;20.12;100.00
8366;BME280;4220;42.502;24.188;2022-08-14T03:25:47;94610.94;;;20.11;100.00
8366;BME280;4220;42.502;24.188;2022-08-14T03:28:14;94614.38;;;20.16;100.00
8366;BME280;4220;42.502;24.188;2022-08-14T03:30:41;94609.34;;;20.10;100.00
8366;BME280;4220;42.502;24.188;2022-08-14T03:33:10;94615.09;;;20.03;100.00
8366;BME280;4220;42.502;24.188;2022-08-14T03:35:37;94617.78;;;19.85;100.00
8366;BME280;4220;42.502;24.188;2022-08-14T03:38:07;94611.25;;;19.48;100.00
8366;BME280;4220;42.502;24.188;2022-08-14T03:40:36;94604.84;;;19.44;100.00
8366;BME280;4220;42.502;24.188;2022-08-14T03:43:04;94600.91;;;19.37;100.00
8366;BME280;4220;42.502;24.188;2022-08-14T03:45:32;94612.75;;;19.36;100.00
8366;BME280;4220;42.502;24.188;2022-08-14T03:48:00;94615.31;;;19.46;100.00
8366;BME280;4220;42.502;24.188;2022-08-14T03:50:28;94602.31;;;19.29;100.00
8366;BME280;4220;42.502;24.188;2022-08-14T03:52:57;94609.00;;;19.32;100.00
8366;BME280;4220;42.502;24.188;2022-08-14T03:55:24;94611.09;;;19.40;100.00
8366;BME280;4220;42.502;24.188;2022-08-14T03:57:54;94604.59;;;19.17;100.00
8366;BME280;4220;42.502;24.188;2022-08-14T04:00:21;94607.03;;;19.19;100.00
8366;BME280;4220;42.502;24.188;2022-08-14T04:02:48;94614.91;;;19.34;100.00
8366;BME280;4220;42.502;24.188;2022-08-14T04:05:15;94609.72;;;19.42;100.00
8366;BME280;4220;42.502;24.188;2022-08-14T04:07:43;94614.03;;;19.43;100.00
8366;BME280;4220;42.502;24.188;2022-08-14T04:10:11;94595.91;;;19.25;100.00
8366;BME280;4220;42.502;24.188;2022-08-14T04:12:38;94610.53;;;19.43;100.00
8366;BME280;4220;42.502;24.188;2022-08-14T04:15:08;94605.59;;;19.50;100.00
8366;BME280;4220;42.502;24.188;2022-08-14T04:17:35;94621.41;;;19.75;100.00
8366;BME280;4220;42.502;24.188;2022-08-14T04:20:03;94581.53;;;19.58;100.00
8366;BME280;4220;42.502;24.188;2022-08-14T04:22:31;94616.84;;;19.94;100.00
8366;BME280;4220;42.502;24.188;2022-08-14T04:24:58;94619.16;;;20.01;100.00
8366;BME280;4220;42.502;24.188;2022-08-14T04:27:26;94622.28;;;20.08;100.00
8366;BME280;4220;42.502;24.188;2022-08-14T04:29:53;94618.22;;;20.10;100.00
8366;BME280;4220;42.502;24.188;2022-08-14T04:32:23;94624.03;;;20.17;100.00
8366;BME280;4220;42.502;24.188;2022-08-14T04:34:52;94621.88;;;20.19;100.00
8366;BME280;4220;42.502;24.188;2022-08-14T04:37:20;94627.47;;;20.23;100.00
8366;BME280;4220;42.502;24.188;2022-08-14T04:40:06;94628.03;;;20.20;100.00
8366;BME280;4220;42.502;24.188;2022-08-14T04:42:50;94616.84;;;19.94;100.00
8366;BME280;4220;42.502;24.188;2022-08-14T04:45:35;94620.53;;;19.80;100.00
8366;BME280;4220;42.502;24.188;2022-08-14T04:48:07;94632.63;;;19.82;100.00
8366;BME280;4220;42.502;24.188;2022-08-14T04:50:41;94628.25;;;19.86;100.00
8366;BME280;4220;42.502;24.188;2022-08-14T04:53:09;94624.56;;;19.82;100.00
8366;BME280;4220;42.502;24.188;2022-08-14T04:55:38;94624.63;;;19.96;100.00
8366;BME280;4220;42.502;24.188;2022-08-14T04:58:05;94617.78;;;20.03;100.00
8366;BME280;4220;42.502;24.188;2022-08-14T05:00:32;94621.34;;;20.17;100.00
8366;BME280;4220;42.502;24.188;2022-08-14T05:02:58;94629.78;;;20.30;100.00
8366;BME280;4220;42.502;24.188;2022-08-14T05:05:29;94625.88;;;20.41;100.00
8366;BME280;4220;42.502;24.188;2022-08-14T05:08:03;94628.56;;;20.41;100.00
8366;BME280;4220;42.502;24.188;2022-08-14T05:10:35;94634.03;;;20.36;100.00
8366;BME280;4220;42.502;24.188;2022-08-14T05:13:02;94627.56;;;20.37;100.00
8366;BME280;4220;42.502;24.188;2022-08-14T05:15:32;94628.75;;;20.44;100.00
8366;BME280;4220;42.502;24.188;2022-08-14T05:18:00;94628.97;;;20.48;100.00
8366;BME280;4220;42.502;24.188;2022-08-14T05:20:28;94628.06;;;20.39;100.00
8366;BME280;4220;42.502;24.188;2022-08-14T05:22:55;94629.78;;;20.30;100.00
8366;BME280;4220;42.502;24.188;2022-08-14T05:25:24;94628.41;;;19.95;100.00
8366;BME280;4220;42.502;24.188;2022-08-14T05:27:50;94621.88;;;19.82;100.00
8366;BME280;4220;42.502;24.188;2022-08-14T05:30:17;94624.25;;;19.84;100.00
8366;BME280;4220;42.502;24.188;2022-08-14T05:32:44;94622.94;;;19.81;100.00
8366;BME280;4220;42.502;24.188;2022-08-14T05:35:12;94624.75;;;19.86;100.00
8366;BME280;4220;42.502;24.188;2022-08-14T05:37:40;94630.06;;;19.72;100.00
8366;BME280;4220;42.502;24.188;2022-08-14T05:40:08;94641.53;;;19.59;100.00
8366;BME280;4220;42.502;24.188;2022-08-14T05:42:36;94636.72;;;19.32;100.00
8366;BME280;4220;42.502;24.188;2022-08-14T05:45:04;94636.25;;;19.25;100.00
8366;BME280;4220;42.502;24.188;2022-08-14T05:47:32;94644.41;;;19.15;100.00
8366;BME280;4220;42.502;24.188;2022-08-14T05:50:05;94650.56;;;19.21;100.00
8366;BME280;4220;42.502;24.188;2022-08-14T05:52:32;94652.00;;;19.37;100.00
8366;BME280;4220;42.502;24.188;2022-08-14T05:55:00;94649.78;;;19.44;100.00
8366;BME280;4220;42.502;24.188;2022-08-14T05:57:28;94636.72;;;19.56;100.00
8366;BME280;4220;42.502;24.188;2022-08-14T05:59:55;94618.00;;;19.70;100.00
8366;BME280;4220;42.502;24.188;2022-08-14T06:02:22;94611.06;;;19.64;100.00
8366;BME280;4220;42.502;24.188;2022-08-14T06:04:48;94631.88;;;19.58;100.00
8366;BME280;4220;42.502;24.188;2022-08-14T06:07:16;94634.09;;;19.51;100.00
8366;BME280;4220;42.502;24.188;2022-08-14T06:09:42;94632.13;;;19.56;100.00
8366;BME280;4220;42.502;24.188;2022-08-14T06:12:11;94504.50;;;18.59;100.00
8366;BME280;4220;42.502;24.188;2022-08-14T06:14:38;94617.72;;;19.24;100.00
8366;BME280;4220;42.502;24.188;2022-08-14T06:17:05;94612.56;;;19.04;100.00
8366;BME280;4220;42.502;24.188;2022-08-14T06:19:33;94605.38;;;18.99;100.00
8366;BME280;4220;42.502;24.188;2022-08-14T06:21:59;94613.88;;;19.06;100.00
8366;BME280;4220;42.502;24.188;2022-08-14T06:24:27;94593.16;;;19.07;100.00
8366;BME280;4220;42.502;24.188;2022-08-14T06:26:53;94601.25;;;19.30;100.00
8366;BME280;4220;42.502;24.188;2022-08-14T06:29:23;94624.38;;;19.55;100.00
8366;BME280;4220;42.502;24.188;2022-08-14T06:31:53;94617.66;;;19.52;100.00
8366;BME280;4220;42.502;24.188;2022-08-14T06:34:19;94628.19;;;19.49;100.00
8366;BME280;4220;42.502;24.188;2022-08-14T06:36:46;94629.94;;;19.58;100.00
8366;BME280;4220;42.502;24.188;2022-08-14T06:39:13;94629.50;;;19.75;100.00
8366;BME280;4220;42.502;24.188;2022-08-14T06:41:40;94628.75;;;19.88;100.00
8366;BME280;4220;42.502;24.188;2022-08-14T06:44:07;94644.25;;;19.96;100.00
8366;BME280;4220;42.502;24.188;2022-08-14T06:46:35;94647.47;;;19.98;100.00
8366;BME280;4220;42.502;24.188;2022-08-14T06:49:02;94654.66;;;20.03;100.00
8366;BME280;4220;42.502;24.188;2022-08-14T06:51:29;94674.31;;;20.03;100.00
8366;BME280;4220;42.502;24.188;2022-08-14T06:53:56;94686.09;;;19.89;100.00
8366;BME280;4220;42.502;24.188;2022-08-14T06:56:23;94707.66;;;19.65;100.00
8366;BME280;4220;42.502;24.188;2022-08-14T06:58:49;94706.09;;;19.59;100.00
8366;BME280;4220;42.502;24.188;2022-08-14T07:01:16;94723.38;;;19.53;100.00
8366;BME280;4220;42.502;24.188;2022-08-14T07:04:02;94697.44;;;19.10;100.00
8366;BME280;4220;42.502;24.188;2022-08-14T07:06:47;94725.88;;;19.16;100.00
8366;BME280;4220;42.502;24.188;2022-08-14T07:09:14;94701.53;;;19.02;100.00
8366;BME280;4220;42.502;24.188;2022-08-14T07:11:41;94651.41;;;18.87;100.00
8366;BME280;4220;42.502;24.188;2022-08-14T07:14:08;94689.81;;;19.17;100.00
8366;BME280;4220;42.502;24.188;2022-08-14T07:16:35;94694.53;;;19.06;100.00
8366;BME280;4220;42.502;24.188;2022-08-14T07:19:03;94690.50;;;19.04;100.00
8366;BME280;4220;42.502;24.188;2022-08-14T07:21:30;94682.19;;;19.00;100.00
8366;BME280;4220;42.502;24.188;2022-08-14T07:23:57;94633.91;;;18.66;100.00
8366;BME280;4220;42.502;24.188;2022-08-14T07:26:23;94680.31;;;19.01;100.00
8366;BME280;4220;42.502;24.188;2022-08-14T07:28:50;94683.72;;;19.11;100.00
8366;BME280;4220;42.502;24.188;2022-08-14T07:31:17;94688.56;;;19.09;100.00
8366;BME280;4220;42.502;24.188;2022-08-14T07:33:45;94680.06;;;18.97;100.00
8366;BME280;4220;42.502;24.188;2022-08-14T07:36:15;94668.63;;;18.86;100.00
8366;BME280;4220;42.502;24.188;2022-08-14T07:38:42;94699.59;;;19.08;100.00
8366;BME280;4220;42.502;24.188;2022-08-14T07:41:10;94695.84;;;19.09;100.00
8366;BME280;4220;42.502;24.188;2022-08-14T07:43:38;94712.44;;;19.16;100.00
8366;BME280;4220;42.502;24.188;2022-08-14T07:46:06;94690.94;;;19.16;100.00
8366;BME280;4220;42.502;24.188;2022-08-14T07:48:37;94702.16;;;19.23;100.00
8366;BME280;4220;42.502;24.188;2022-08-14T07:51:04;94683.44;;;19.13;100.00
8366;BME280;4220;42.502;24.188;2022-08-14T07:53:33;94686.91;;;19.13;100.00
8366;BME280;4220;42.502;24.188;2022-08-14T07:56:00;94685.56;;;19.16;100.00
8366;BME280;4220;42.502;24.188;2022-08-14T07:58:27;94677.50;;;19.16;100.00
8366;BME280;4220;42.502;24.188;2022-08-14T08:00:55;94675.00;;;19.19;100.00
8366;BME280;4220;42.502;24.188;2022-08-14T08:03:24;94666.44;;;19.17;100.00
8366;BME280;4220;42.502;24.188;2022-08-14T08:05:51;94668.69;;;19.34;100.00
8366;BME280;4220;42.502;24.188;2022-08-14T08:08:19;94669.00;;;19.56;100.00
8366;BME280;4220;42.502;24.188;2022-08-14T08:10:48;94674.13;;;19.76;100.00
8366;BME280;4220;42.502;24.188;2022-08-14T08:13:16;94654.09;;;19.87;100.00
8366;BME280;4220;42.502;24.188;2022-08-14T08:15:45;94658.53;;;20.15;100.00
8366;BME280;4220;42.502;24.188;2022-08-14T08:18:14;94658.19;;;20.22;100.00
8366;BME280;4220;42.502;24.188;2022-08-14T08:20:44;94650.84;;;20.28;100.00
8366;BME280;4220;42.502;24.188;2022-08-14T08:23:12;94646.84;;;20.44;100.00
8366;BME280;4220;42.502;24.188;2022-08-14T08:25:42;94639.59;;;20.58;100.00
8366;BME280;4220;42.502;24.188;2022-08-14T08:28:12;94635.13;;;20.67;100.00
8366;BME280;4220;42.502;24.188;2022-08-14T08:30:44;94639.28;;;20.78;100.00
8366;BME280;4220;42.502;24.188;2022-08-14T08:33:12;94635.78;;;20.91;100.00
8366;BME280;4220;42.502;24.188;2022-08-14T08:35:41;94592.75;;;20.86;100.00
8366;BME280;4220;42.502;24.188;2022-08-14T08:38:10;94645.28;;;21.34;100.00
8366;BME280;4220;42.502;24.188;2022-08-14T08:40:38;94637.00;;;21.44;100.00
8366;BME280;4220;42.502;24.188;2022-08-14T08:43:15;94634.28;;;21.58;100.00
8366;BME280;4220;42.502;24.188;2022-08-14T08:45:48;94639.47;;;21.82;100.00
8366;BME280;4220;42.502;24.188;2022-08-14T08:48:18;94637.03;;;22.07;100.00
8366;BME280;4220;42.502;24.188;2022-08-14T08:50:45;94609.97;;;21.99;100.00
8366;BME280;4220;42.502;24.188;2022-08-14T08:53:12;94603.84;;;22.07;100.00
8366;BME280;4220;42.502;24.188;2022-08-14T08:55:41;94643.31;;;22.52;100.00
8366;BME280;4220;42.502;24.188;2022-08-14T08:58:10;94652.25;;;22.75;100.00
8366;BME280;4220;42.502;24.188;2022-08-14T09:00:39;94646.34;;;22.73;100.00
8366;BME280;4220;42.502;24.188;2022-08-14T09:03:09;94665.44;;;22.54;100.00
8366;BME280;4220;42.502;24.188;2022-08-14T09:05:47;94628.38;;;22.33;100.00
8366;BME280;4220;42.502;24.188;2022-08-14T09:08:16;94659.28;;;22.40;100.00
8366;BME280;4220;42.502;24.188;2022-08-14T09:10:43;94669.66;;;22.47;100.00
8366;BME280;4220;42.502;24.188;2022-08-14T09:13:11;94659.66;;;22.47;100.00
8366;BME280;4220;42.502;24.188;2022-08-14T09:15:39;94675.66;;;22.80;100.00
8366;BME280;4220;42.502;24.188;2022-08-14T09:18:09;94667.09;;;23.08;100.00
8366;BME280;4220;42.502;24.188;2022-08-14T09:20:41;94665.44;;;23.21;100.00
8366;BME280;4220;42.502;24.188;2022-08-14T09:23:09;94679.75;;;23.52;100.00
8366;BME280;4220;42.502;24.188;2022-08-14T09:25:38;94670.28;;;23.72;99.43
8366;BME280;4220;42.502;24.188;2022-08-14T09:28:06;94666.38;;;23.95;98.92
8366;BME280;4220;42.502;24.188;2022-08-14T09:30:37;94673.09;;;23.97;97.35
8366;BME280;4220;42.502;24.188;2022-08-14T09:33:25;94662.97;;;24.29;96.22
8366;BME280;4220;42.502;24.188;2022-08-14T09:36:05;94666.78;;;24.28;94.83
8366;BME280;4220;42.502;24.188;2022-08-14T09:38:45;94645.91;;;24.37;94.93
8366;BME280;4220;42.502;24.188;2022-08-14T09:41:23;94670.31;;;24.71;94.94
8366;BME280;4220;42.502;24.188;2022-08-14T09:43:59;94667.47;;;24.93;94.70
8366;BME280;4220;42.502;24.188;2022-08-14T09:46:31;94656.63;;;24.93;93.21
8366;BME280;4220;42.502;24.188;2022-08-14T09:49:00;94656.94;;;24.83;92.87
8366;BME280;4220;42.502;24.188;2022-08-14T09:51:28;94655.66;;;24.98;92.32
8366;BME280;4220;42.502;24.188;2022-08-14T09:54:03;94645.09;;;25.13;91.83
8366;BME280;4220;42.502;24.188;2022-08-14T09:56:43;94596.94;;;24.85;91.90
8366;BME280;4220;42.502;24.188;2022-08-14T09:59:13;94644.94;;;25.01;92.57
8366;BME280;4220;42.502;24.188;2022-08-14T10:01:41;94560.28;;;24.36;91.78
8366;BME280;4220;42.502;24.188;2022-08-14T10:04:19;94644.34;;;24.61;92.51
8366;BME280;4220;42.502;24.188;2022-08-14T10:06:48;94633.63;;;24.48;90.18
8366;BME280;4220;42.502;24.188;2022-08-14T10:09:15;94628.38;;;24.26;91.44
8366;BME280;4220;42.502;24.188;2022-08-14T10:11:54;94634.25;;;24.11;90.86
8366;BME280;4220;42.502;24.188;2022-08-14T10:14:23;94623.53;;;23.97;92.08
8366;BME280;4220;42.502;24.188;2022-08-14T10:16:51;94618.72;;;23.85;94.54
8366;BME280;4220;42.502;24.188;2022-08-14T10:19:22;94605.59;;;23.62;93.89
8366;BME280;4220;42.502;24.188;2022-08-14T10:22:00;94619.28;;;23.57;94.14
8366;BME280;4220;42.502;24.188;2022-08-14T10:24:29;94622.13;;;23.52;93.36
8366;BME280;4220;42.502;24.188;2022-08-14T10:26:58;94616.53;;;23.48;92.57
8366;BME280;4220;42.502;24.188;2022-08-14T10:29:31;94619.84;;;23.36;94.34
8366;BME280;4220;42.502;24.188;2022-08-14T10:31:59;94614.22;;;23.72;93.57
8366;BME280;4220;42.502;24.188;2022-08-14T10:34:33;94497.13;;;23.41;90.15
8366;BME280;4220;42.502;24.188;2022-08-14T10:37:04;94619.75;;;24.66;88.34
8366;BME280;4220;42.502;24.188;2022-08-14T10:39:33;94614.34;;;24.66;88.43
8366;BME280;4220;42.502;24.188;2022-08-14T10:42:03;94535.72;;;24.06;90.33
8366;BME280;4220;42.502;24.188;2022-08-14T10:44:33;94607.31;;;24.48;90.63
8366;BME280;4220;42.502;24.188;2022-08-14T10:47:01;94589.47;;;24.39;90.41
8366;BME280;4220;42.502;24.188;2022-08-14T10:49:33;94564.56;;;24.62;89.33
8366;BME280;4220;42.502;24.188;2022-08-14T10:52:03;94576.50;;;24.87;89.83
8366;BME280;4220;42.502;24.188;2022-08-14T10:54:37;94602.06;;;25.32;88.01
8366;BME280;4220;42.502;24.188;2022-08-14T10:57:15;94575.06;;;25.45;84.71
8366;BME280;4220;42.502;24.188;2022-08-14T10:59:48;94596.53;;;25.87;84.66
8366;BME280;4220;42.502;24.188;2022-08-14T11:02:20;94609.34;;;26.16;84.80
8366;BME280;4220;42.502;24.188;2022-08-14T11:05:06;94612.59;;;26.30;83.67
8366;BME280;4220;42.502;24.188;2022-08-14T11:07:34;94615.38;;;26.42;82.58
8366;BME280;4220;42.502;24.188;2022-08-14T11:10:06;94616.69;;;26.57;79.25
8366;BME280;4220;42.502;24.188;2022-08-14T11:12:44;94622.47;;;26.55;79.02
8366;BME280;4220;42.502;24.188;2022-08-14T11:15:13;94624.88;;;26.78;79.34
8366;BME280;4220;42.502;24.188;2022-08-14T11:17:41;94631.53;;;27.01;78.12
8366;BME280;4220;42.502;24.188;2022-08-14T11:20:12;94622.88;;;26.87;79.20
8366;BME280;4220;42.502;24.188;2022-08-14T11:22:40;94639.34;;;26.90;79.17
8366;BME280;4220;42.502;24.188;2022-08-14T11:25:10;94640.66;;;26.84;78.28
8366;BME280;4220;42.502;24.188;2022-08-14T11:27:40;94646.91;;;26.85;78.62
8366;BME280;4220;42.502;24.188;2022-08-14T11:30:09;94643.25;;;26.81;80.20
8366;BME280;4220;42.502;24.188;2022-08-14T11:32:39;94599.88;;;26.43;80.19
8366;BME280;4220;42.502;24.188;2022-08-14T11:35:12;94637.91;;;26.63;80.06
8366;BME280;4220;42.502;24.188;2022-08-14T11:37:54;94621.28;;;26.44;80.41
8366;BME280;4220;42.502;24.188;2022-08-14T11:40:23;94623.19;;;26.44;82.44
8366;BME280;4220;42.502;24.188;2022-08-14T11:42:51;94623.13;;;26.32;83.38
8366;BME280;4220;42.502;24.188;2022-08-14T11:45:21;94621.50;;;26.19;83.65
8366;BME280;4220;42.502;24.188;2022-08-14T11:47:48;94608.25;;;26.09;83.63
8366;BME280;4220;42.502;24.188;2022-08-14T11:50:18;94608.03;;;25.93;83.90
8366;BME280;4220;42.502;24.188;2022-08-14T11:52:47;94600.59;;;26.02;83.09
8366;BME280;4220;42.502;24.188;2022-08-14T11:55:14;94612.44;;;26.06;82.33
8366;BME280;4220;42.502;24.188;2022-08-14T11:57:42;94608.47;;;25.95;83.25
8366;BME280;4220;42.502;24.188;2022-08-14T12:00:12;94606.28;;;25.88;84.45
8366;BME280;4220;42.502;24.188;2022-08-14T12:02:49;94593.47;;;25.68;86.09
8366;BME280;4220;42.502;24.188;2022-08-14T12:05:27;94610.56;;;25.69;87.21
8366;BME280;4220;42.502;24.188;2022-08-14T12:07:55;94612.56;;;25.43;88.19
8366;BME280;4220;42.502;24.188;2022-08-14T12:10:22;94604.34;;;25.22;88.94
8366;BME280;4220;42.502;24.188;2022-08-14T12:12:49;94613.34;;;25.05;89.61
8366;BME280;4220;42.502;24.188;2022-08-14T12:15:28;94606.81;;;24.89;91.76
8366;BME280;4220;42.502;24.188;2022-08-14T12:17:55;94613.69;;;24.69;93.90
8366;BME280;4220;42.502;24.188;2022-08-14T12:20:30;94611.94;;;24.48;95.98
8366;BME280;4220;42.502;24.188;2022-08-14T12:22:59;94600.00;;;24.23;97.47
8366;BME280;4220;42.502;24.188;2022-08-14T12:25:27;94608.88;;;24.06;98.49
8366;BME280;4220;42.502;24.188;2022-08-14T12:27:55;94619.88;;;24.01;98.00
8366;BME280;4220;42.502;24.188;2022-08-14T12:30:28;94617.13;;;23.76;98.54
8366;BME280;4220;42.502;24.188;2022-08-14T12:32:56;94606.88;;;23.64;99.62
8366;BME280;4220;42.502;24.188;2022-08-14T12:35:26;94594.28;;;23.51;99.55
8366;BME280;4220;42.502;24.188;2022-08-14T12:38:02;94607.59;;;23.39;100.00
8366;BME280;4220;42.502;24.188;2022-08-14T12:40:29;94605.28;;;23.24;100.00
8366;BME280;4220;42.502;24.188;2022-08-14T12:42:59;94611.44;;;23.16;100.00
8366;BME280;4220;42.502;24.188;2022-08-14T12:45:32;94605.56;;;23.14;100.00
8366;BME280;4220;42.502;24.188;2022-08-14T12:48:00;94601.50;;;23.03;100.00
8366;BME280;4220;42.502;24.188;2022-08-14T12:50:36;94560.03;;;22.76;100.00
8366;BME280;4220;42.502;24.188;2022-08-14T12:53:04;94580.09;;;22.84;100.00
8366;BME280;4220;42.502;24.188;2022-08-14T12:55:32;94577.59;;;22.65;100.00
8366;BME280;4220;42.502;24.188;2022-08-14T12:58:01;94580.00;;;22.67;100.00
8366;BME280;4220;42.502;24.188;2022-08-14T13:00:30;94577.44;;;22.62;100.00
8366;BME280;4220;42.502;24.188;2022-08-14T13:02:58;94577.44;;;22.48;100.00
8366;BME280;4220;42.502;24.188;2022-08-14T13:05:26;94569.75;;;22.33;100.00
8366;BME280;4220;42.502;24.188;2022-08-14T13:07:54;94558.53;;;22.26;100.00
8366;BME280;4220;42.502;24.188;2022-08-14T13:10:23;94552.59;;;22.16;100.00
8366;BME280;4220;42.502;24.188;2022-08-14T13:12:54;94552.47;;;22.21;100.00
8366;BME280;4220;42.502;24.188;2022-08-14T13:15:22;94546.41;;;22.15;100.00